sensor_id;sensor_type;location;lat;lon;timestamp;P1;durP1;ratioP1;P2;durP2;ratioP2
53594;SDS011;39479;45.720;11.310;2023-11-22T00:00:46;6.50;;;3.67;;
53594;SDS011;39479;45.720;11.310;2023-11-22T00:03:12;6.28;;;4.20;;
53594;SDS011;39479;45.720;11.310;2023-11-22T00:05:38;4.03;;;3.30;;
53594;SDS011;39479;45.720;11.310;2023-11-22T00:08:04;4.05;;;3.25;;
53594;SDS011;39479;45.720;11.310;2023-11-22T00:10:30;3.72;;;3.05;;
53594;SDS011;39479;45.720;11.310;2023-11-22T00:12:56;2.55;;;2.35;;
53594;SDS011;39479;45.720;11.310;2023-11-22T00:15:23;3.75;;;2.60;;
53594;SDS011;39479;45.720;11.310;2023-11-22T00:17:51;4.97;;;3.70;;
53594;SDS011;39479;45.720;11.310;2023-11-22T00:20:18;5.10;;;3.28;;
53594;SDS011;39479;45.720;11.310;2023-11-22T00:22:46;4.00;;;3.38;;
53594;SDS011;39479;45.720;11.310;2023-11-22T00:25:12;6.38;;;4.85;;
53594;SDS011;39479;45.720;11.310;2023-11-22T00:27:38;5.10;;;3.70;;
53594;SDS011;39479;45.720;11.310;2023-11-22T00:30:04;5.28;;;3.88;;
53594;SDS011;39479;45.720;11.310;2023-11-22T00:32:31;5.53;;;3.60;;
53594;SDS011;39479;45.720;11.310;2023-11-22T00:34:57;7.43;;;3.53;;
53594;SDS011;39479;45.720;11.310;2023-11-22T00:37:23;4.38;;;3.40;;
53594;SDS011;39479;45.720;11.310;2023-11-22T00:39:49;5.03;;;3.38;;
53594;SDS011;39479;45.720;11.310;2023-11-22T00:42:16;4.05;;;3.10;;
53594;SDS011;39479;45.720;11.310;2023-11-22T00:44:45;4.05;;;2.80;;
53594;SDS011;39479;45.720;11.310;2023-11-22T00:47:12;4.15;;;2.80;;
53594;SDS011;39479;45.720;11.310;2023-11-22T00:49:38;3.35;;;2.50;;
53594;SDS011;39479;45.720;11.310;2023-11-22T00:52:04;6.00;;;2.65;;
53594;SDS011;39479;45.720;11.310;2023-11-22T00:54:30;2.90;;;2.55;;
53594;SDS011;39479;45.720;11.310;2023-11-22T00:56:56;3.22;;;2.90;;
53594;SDS011;39479;45.720;11.310;2023-11-22T00:59:22;2.80;;;2.25;;
53594;SDS011;39479;45.720;11.310;2023-11-22T01:01:48;3.72;;;2.35;;
53594;SDS011;39479;45.720;11.310;2023-11-22T01:04:14;2.55;;;2.20;;
53594;SDS011;39479;45.720;11.310;2023-11-22T01:06:40;3.78;;;2.72;;
53594;SDS011;39479;45.720;11.310;2023-11-22T01:09:06;2.70;;;2.50;;
53594;SDS011;39479;45.720;11.310;2023-11-22T01:11:34;2.53;;;2.30;;
53594;SDS011;39479;45.720;11.310;2023-11-22T01:14:00;3.63;;;2.35;;
53594;SDS011;39479;45.720;11.310;2023-11-22T01:16:27;2.80;;;2.60;;
53594;SDS011;39479;45.720;11.310;2023-11-22T01:18:53;3.85;;;2.63;;
53594;SDS011;39479;45.720;11.310;2023-11-22T01:21:19;2.45;;;2.25;;
53594;SDS011;39479;45.720;11.310;2023-11-22T01:23:45;2.65;;;2.10;;
53594;SDS011;39479;45.720;11.310;2023-11-22T01:26:11;2.38;;;2.17;;
53594;SDS011;39479;45.720;11.310;2023-11-22T01:28:37;2.30;;;2.10;;
53594;SDS011;39479;45.720;11.310;2023-11-22T01:31:10;2.42;;;2.20;;
53594;SDS011;39479;45.720;11.310;2023-11-22T01:33:36;2.15;;;1.95;;
53594;SDS011;39479;45.720;11.310;2023-11-22T01:36:02;1.98;;;1.88;;
53594;SDS011;39479;45.720;11.310;2023-11-22T01:38:28;2.85;;;2.08;;
53594;SDS011;39479;45.720;11.310;2023-11-22T01:40:54;2.38;;;2.17;;
53594;SDS011;39479;45.720;11.310;2023-11-22T01:43:20;2.60;;;2.40;;
53594;SDS011;39479;45.720;11.310;2023-11-22T01:45:49;2.60;;;2.40;;
53594;SDS011;39479;45.720;11.310;2023-11-22T01:48:15;3.97;;;2.30;;
53594;SDS011;39479;45.720;11.310;2023-11-22T01:50:44;2.50;;;2.30;;
53594;SDS011;39479;45.720;11.310;2023-11-22T01:53:11;2.70;;;2.47;;
53594;SDS011;39479;45.720;11.310;2023-11-22T01:55:38;3.15;;;2.53;;
53594;SDS011;39479;45.720;11.310;2023-11-22T01:58:05;2.97;;;2.30;;
53594;SDS011;39479;45.720;11.310;2023-11-22T02:00:31;3.63;;;2.30;;
53594;SDS011;39479;45.720;11.310;2023-11-22T02:02:58;3.15;;;2.30;;
53594;SDS011;39479;45.720;11.310;2023-11-22T02:05:25;2.67;;;2.40;;
53594;SDS011;39479;45.720;11.310;2023-11-22T02:07:51;2.05;;;1.95;;
53594;SDS011;39479;45.720;11.310;2023-11-22T02:10:18;2.47;;;2.28;;
53594;SDS011;39479;45.720;11.310;2023-11-22T02:12:44;2.03;;;1.90;;
53594;SDS011;39479;45.720;11.310;2023-11-22T02:15:10;3.03;;;2.20;;
53594;SDS011;39479;45.720;11.310;2023-11-22T02:17:36;2.50;;;2.13;;
53594;SDS011;39479;45.720;11.310;2023-11-22T02:20:02;2.28;;;2.10;;
53594;SDS011;39479;45.720;11.310;2023-11-22T02:22:41;2.40;;;1.88;;
53594;SDS011;39479;45.720;11.310;2023-11-22T02:25:07;1.83;;;1.73;;
53594;SDS011;39479;45.720;11.310;2023-11-22T02:27:34;2.13;;;1.92;;
53594;SDS011;39479;45.720;11.310;2023-11-22T02:30:02;1.95;;;1.80;;
53594;SDS011;39479;45.720;11.310;2023-11-22T02:32:30;1.80;;;1.70;;
53594;SDS011;39479;45.720;11.310;2023-11-22T02:34:56;3.03;;;2.05;;
53594;SDS011;39479;45.720;11.310;2023-11-22T02:37:22;3.08;;;2.20;;
53594;SDS011;39479;45.720;11.310;2023-11-22T02:42:32;1.70;;;1.60;;
53594;SDS011;39479;45.720;11.310;2023-11-22T02:44:58;2.15;;;2.00;;
53594;SDS011;39479;45.720;11.310;2023-11-22T02:47:24;2.28;;;2.08;;
53594;SDS011;39479;45.720;11.310;2023-11-22T02:49:51;2.20;;;2.00;;
53594;SDS011;39479;45.720;11.310;2023-11-22T02:52:17;2.10;;;2.00;;
53594;SDS011;39479;45.720;11.310;2023-11-22T02:54:43;2.33;;;2.13;;
53594;SDS011;39479;45.720;11.310;2023-11-22T02:57:11;2.38;;;1.90;;
53594;SDS011;39479;45.720;11.310;2023-11-22T02:59:37;2.75;;;2.15;;
53594;SDS011;39479;45.720;11.310;2023-11-22T03:02:03;2.40;;;2.05;;
53594;SDS011;39479;45.720;11.310;2023-11-22T03:04:29;2.35;;;2.15;;
53594;SDS011;39479;45.720;11.310;2023-11-22T03:06:55;2.60;;;2.40;;
53594;SDS011;39479;45.720;11.310;2023-11-22T03:09:21;2.40;;;2.20;;
53594;SDS011;39479;45.720;11.310;2023-11-22T03:11:48;2.70;;;2.15;;
53594;SDS011;39479;45.720;11.310;2023-11-22T03:14:14;2.15;;;1.95;;
53594;SDS011;39479;45.720;11.310;2023-11-22T03:16:40;2.10;;;1.90;;
53594;SDS011;39479;45.720;11.310;2023-11-22T03:19:07;2.60;;;2.10;;
53594;SDS011;39479;45.720;11.310;2023-11-22T03:21:33;3.08;;;2.28;;
53594;SDS011;39479;45.720;11.310;2023-11-22T03:24:01;6.07;;;2.20;;
53594;SDS011;39479;45.720;11.310;2023-11-22T03:26:29;2.17;;;2.00;;
53594;SDS011;39479;45.720;11.310;2023-11-22T03:28:55;2.92;;;2.28;;
53594;SDS011;39479;45.720;11.310;2023-11-22T03:31:21;2.10;;;1.88;;
53594;SDS011;39479;45.720;11.310;2023-11-22T03:33:47;2.08;;;1.88;;
53594;SDS011;39479;45.720;11.310;2023-11-22T03:36:13;2.30;;;2.10;;
53594;SDS011;39479;45.720;11.310;2023-11-22T03:38:39;2.03;;;1.83;;
53594;SDS011;39479;45.720;11.310;2023-11-22T03:41:05;2.63;;;2.35;;
53594;SDS011;39479;45.720;11.310;2023-11-22T03:43:31;2.10;;;2.00;;
53594;SDS011;39479;45.720;11.310;2023-11-22T03:45:57;2.65;;;2.30;;
53594;SDS011;39479;45.720;11.310;2023-11-22T03:48:23;3.05;;;2.47;;
53594;SDS011;39479;45.720;11.310;2023-11-22T03:50:51;2.15;;;2.05;;
53594;SDS011;39479;45.720;11.310;2023-11-22T03:53:17;2.38;;;2.17;;
53594;SDS011;39479;45.720;11.310;2023-11-22T03:55:45;2.55;;;2.15;;
53594;SDS011;39479;45.720;11.310;2023-11-22T03:58:11;2.22;;;2.08;;
53594;SDS011;39479;45.720;11.310;2023-11-22T04:00:37;3.22;;;2.20;;
53594;SDS011;39479;45.720;11.310;2023-11-22T04:03:04;2.30;;;2.10;;
53594;SDS011;39479;45.720;11.310;2023-11-22T04:05:30;4.25;;;2.00;;
53594;SDS011;39479;45.720;11.310;2023-11-22T04:07:57;2.28;;;2.08;;
53594;SDS011;39479;45.720;11.310;2023-11-22T04:10:23;3.58;;;2.03;;
53594;SDS011;39479;45.720;11.310;2023-11-22T04:12:50;2.38;;;2.17;;
53594;SDS011;39479;45.720;11.310;2023-11-22T04:15:16;2.30;;;2.10;;
53594;SDS011;39479;45.720;11.310;2023-11-22T04:17:42;2.35;;;2.10;;
53594;SDS011;39479;45.720;11.310;2023-11-22T04:20:08;2.20;;;2.00;;
53594;SDS011;39479;45.720;11.310;2023-11-22T04:22:38;2.65;;;2.20;;
53594;SDS011;39479;45.720;11.310;2023-11-22T04:25:05;2.15;;;2.03;;
53594;SDS011;39479;45.720;11.310;2023-11-22T04:27:31;2.55;;;2.35;;
53594;SDS011;39479;45.720;11.310;2023-11-22T04:29:58;2.47;;;2.28;;
53594;SDS011;39479;45.720;11.310;2023-11-22T04:32:24;2.25;;;2.00;;
53594;SDS011;39479;45.720;11.310;2023-11-22T04:34:50;2.63;;;2.22;;
53594;SDS011;39479;45.720;11.310;2023-11-22T04:37:16;3.17;;;2.15;;
53594;SDS011;39479;45.720;11.310;2023-11-22T04:39:42;2.50;;;2.30;;
53594;SDS011;39479;45.720;11.310;2023-11-22T04:42:08;2.42;;;2.25;;
53594;SDS011;39479;45.720;11.310;2023-11-22T04:44:34;3.47;;;2.22;;
53594;SDS011;39479;45.720;11.310;2023-11-22T04:47:00;4.03;;;2.50;;
53594;SDS011;39479;45.720;11.310;2023-11-22T04:49:26;4.00;;;2.45;;
53594;SDS011;39479;45.720;11.310;2023-11-22T04:51:52;2.50;;;2.30;;
53594;SDS011;39479;45.720;11.310;2023-11-22T04:54:20;2.38;;;2.17;;
53594;SDS011;39479;45.720;11.310;2023-11-22T04:56:46;3.60;;;2.40;;
53594;SDS011;39479;45.720;11.310;2023-11-22T04:59:12;2.58;;;2.38;;
53594;SDS011;39479;45.720;11.310;2023-11-22T05:01:38;2.67;;;2.35;;
53594;SDS011;39479;45.720;11.310;2023-11-22T05:04:04;1.88;;;1.77;;
53594;SDS011;39479;45.720;11.310;2023-11-22T05:06:30;1.98;;;1.88;;
53594;SDS011;39479;45.720;11.310;2023-11-22T05:08:57;2.67;;;2.03;;
53594;SDS011;39479;45.720;11.310;2023-11-22T05:11:23;2.28;;;2.03;;
53594;SDS011;39479;45.720;11.310;2023-11-22T05:13:49;3.05;;;1.85;;
53594;SDS011;39479;45.720;11.310;2023-11-22T05:16:16;2.67;;;2.38;;
53594;SDS011;39479;45.720;11.310;2023-11-22T05:18:42;2.90;;;2.53;;
53594;SDS011;39479;45.720;11.310;2023-11-22T05:21:09;3.15;;;2.60;;
53594;SDS011;39479;45.720;11.310;2023-11-22T05:23:35;3.50;;;3.10;;
53594;SDS011;39479;45.720;11.310;2023-11-22T05:26:02;3.55;;;2.60;;
53594;SDS011;39479;45.720;11.310;2023-11-22T05:28:30;2.90;;;2.45;;
53594;SDS011;39479;45.720;11.310;2023-11-22T05:30:56;3.00;;;2.70;;
53594;SDS011;39479;45.720;11.310;2023-11-22T05:33:22;4.43;;;3.63;;
53594;SDS011;39479;45.720;11.310;2023-11-22T05:35:49;3.88;;;3.17;;
53594;SDS011;39479;45.720;11.310;2023-11-22T05:38:15;3.88;;;3.00;;
53594;SDS011;39479;45.720;11.310;2023-11-22T05:40:41;4.18;;;3.17;;
53594;SDS011;39479;45.720;11.310;2023-11-22T05:43:08;3.90;;;2.80;;
53594;SDS011;39479;45.720;11.310;2023-11-22T05:45:35;4.07;;;2.50;;
53594;SDS011;39479;45.720;11.310;2023-11-22T05:48:01;2.72;;;2.40;;
53594;SDS011;39479;45.720;11.310;2023-11-22T05:50:27;2.92;;;2.30;;
53594;SDS011;39479;45.720;11.310;2023-11-22T05:52:53;2.42;;;2.22;;
53594;SDS011;39479;45.720;11.310;2023-11-22T05:55:19;3.65;;;2.70;;
53594;SDS011;39479;45.720;11.310;2023-11-22T05:57:46;3.08;;;2.78;;
53594;SDS011;39479;45.720;11.310;2023-11-22T06:00:12;2.95;;;2.65;;
53594;SDS011;39479;45.720;11.310;2023-11-22T06:02:39;4.55;;;2.58;;
53594;SDS011;39479;45.720;11.310;2023-11-22T06:05:05;2.58;;;2.38;;
53594;SDS011;39479;45.720;11.310;2023-11-22T06:07:31;2.72;;;2.45;;
53594;SDS011;39479;45.720;11.310;2023-11-22T06:09:58;3.03;;;2.38;;
53594;SDS011;39479;45.720;11.310;2023-11-22T06:12:26;2.63;;;2.42;;
53594;SDS011;39479;45.720;11.310;2023-11-22T06:14:52;3.47;;;2.25;;
53594;SDS011;39479;45.720;11.310;2023-11-22T06:17:18;2.20;;;2.00;;
53594;SDS011;39479;45.720;11.310;2023-11-22T06:19:44;3.88;;;2.33;;
53594;SDS011;39479;45.720;11.310;2023-11-22T06:22:10;7.28;;;4.85;;
53594;SDS011;39479;45.720;11.310;2023-11-22T06:24:36;8.05;;;4.53;;
53594;SDS011;39479;45.720;11.310;2023-11-22T06:27:03;5.85;;;3.88;;
53594;SDS011;39479;45.720;11.310;2023-11-22T06:29:29;5.70;;;3.80;;
53594;SDS011;39479;45.720;11.310;2023-11-22T06:31:55;5.65;;;3.40;;
53594;SDS011;39479;45.720;11.310;2023-11-22T06:34:21;4.25;;;3.22;;
53594;SDS011;39479;45.720;11.310;2023-11-22T06:36:47;5.10;;;3.92;;
53594;SDS011;39479;45.720;11.310;2023-11-22T06:39:13;5.47;;;4.25;;
53594;SDS011;39479;45.720;11.310;2023-11-22T06:41:42;5.95;;;3.78;;
53594;SDS011;39479;45.720;11.310;2023-11-22T06:44:08;5.45;;;3.72;;
53594;SDS011;39479;45.720;11.310;2023-11-22T06:46:38;6.57;;;3.83;;
53594;SDS011;39479;45.720;11.310;2023-11-22T06:49:04;5.78;;;3.97;;
53594;SDS011;39479;45.720;11.310;2023-11-22T06:51:30;3.83;;;3.22;;
53594;SDS011;39479;45.720;11.310;2023-11-22T06:53:56;3.10;;;2.80;;
53594;SDS011;39479;45.720;11.310;2023-11-22T06:56:22;3.08;;;2.40;;
53594;SDS011;39479;45.720;11.310;2023-11-22T06:58:48;2.50;;;2.30;;
53594;SDS011;39479;45.720;11.310;2023-11-22T07:01:16;2.70;;;2.10;;
53594;SDS011;39479;45.720;11.310;2023-11-22T07:03:42;2.90;;;2.70;;
53594;SDS011;39479;45.720;11.310;2023-11-22T07:06:08;2.92;;;2.72;;
53594;SDS011;39479;45.720;11.310;2023-11-22T07:08:34;3.65;;;3.15;;
53594;SDS011;39479;45.720;11.310;2023-11-22T07:11:01;4.72;;;3.47;;
53594;SDS011;39479;45.720;11.310;2023-11-22T07:13:28;4.63;;;3.38;;
53594;SDS011;39479;45.720;11.310;2023-11-22T07:15:54;4.68;;;3.60;;
53594;SDS011;39479;45.720;11.310;2023-11-22T07:18:20;5.47;;;3.58;;
53594;SDS011;39479;45.720;11.310;2023-11-22T07:20:49;4.97;;;3.58;;
53594;SDS011;39479;45.720;11.310;2023-11-22T07:23:15;4.28;;;3.63;;
53594;SDS011;39479;45.720;11.310;2023-11-22T07:25:41;4.30;;;3.30;;
53594;SDS011;39479;45.720;11.310;2023-11-22T07:28:07;4.75;;;3.70;;
53594;SDS011;39479;45.720;11.310;2023-11-22T07:30:33;5.70;;;4.10;;
53594;SDS011;39479;45.720;11.310;2023-11-22T07:33:00;4.20;;;3.60;;
53594;SDS011;39479;45.720;11.310;2023-11-22T07:35:27;7.03;;;5.03;;
53594;SDS011;39479;45.720;11.310;2023-11-22T07:37:53;8.02;;;4.85;;
53594;SDS011;39479;45.720;11.310;2023-11-22T07:40:19;5.75;;;4.35;;
53594;SDS011;39479;45.720;11.310;2023-11-22T07:42:47;5.63;;;4.15;;
53594;SDS011;39479;45.720;11.310;2023-11-22T07:45:14;5.40;;;4.43;;
53594;SDS011;39479;45.720;11.310;2023-11-22T07:47:41;4.68;;;3.72;;
53594;SDS011;39479;45.720;11.310;2023-11-22T07:50:08;5.32;;;4.30;;
53594;SDS011;39479;45.720;11.310;2023-11-22T07:52:35;4.78;;;3.90;;
53594;SDS011;39479;45.720;11.310;2023-11-22T07:55:03;6.53;;;4.10;;
53594;SDS011;39479;45.720;11.310;2023-11-22T07:57:30;6.50;;;3.95;;
53594;SDS011;39479;45.720;11.310;2023-11-22T07:59:56;6.35;;;4.75;;
53594;SDS011;39479;45.720;11.310;2023-11-22T08:02:22;5.80;;;5.10;;
53594;SDS011;39479;45.720;11.310;2023-11-22T08:04:48;5.63;;;4.68;;
53594;SDS011;39479;45.720;11.310;2023-11-22T08:07:16;5.35;;;4.65;;
53594;SDS011;39479;45.720;11.310;2023-11-22T08:09:42;5.13;;;4.60;;
53594;SDS011;39479;45.720;11.310;2023-11-22T08:12:11;7.28;;;4.93;;
53594;SDS011;39479;45.720;11.310;2023-11-22T08:14:38;10.48;;;6.28;;
53594;SDS011;39479;45.720;11.310;2023-11-22T08:17:05;8.18;;;5.50;;
53594;SDS011;39479;45.720;11.310;2023-11-22T08:19:31;5.88;;;5.28;;
53594;SDS011;39479;45.720;11.310;2023-11-22T08:21:58;6.10;;;5.07;;
53594;SDS011;39479;45.720;11.310;2023-11-22T08:24:24;7.75;;;4.72;;
53594;SDS011;39479;45.720;11.310;2023-11-22T08:26:50;8.43;;;4.70;;
53594;SDS011;39479;45.720;11.310;2023-11-22T08:29:16;6.72;;;4.70;;
53594;SDS011;39479;45.720;11.310;2023-11-22T08:31:42;5.10;;;4.50;;
53594;SDS011;39479;45.720;11.310;2023-11-22T08:34:08;6.40;;;4.97;;
53594;SDS011;39479;45.720;11.310;2023-11-22T08:36:36;4.97;;;4.38;;
53594;SDS011;39479;45.720;11.310;2023-11-22T08:39:02;6.03;;;4.60;;
53594;SDS011;39479;45.720;11.310;2023-11-22T08:41:29;6.22;;;4.32;;
53594;SDS011;39479;45.720;11.310;2023-11-22T08:43:56;7.70;;;6.15;;
53594;SDS011;39479;45.720;11.310;2023-11-22T08:46:23;8.60;;;6.50;;
53594;SDS011;39479;45.720;11.310;2023-11-22T08:48:49;8.57;;;6.60;;
53594;SDS011;39479;45.720;11.310;2023-11-22T08:51:18;8.07;;;6.88;;
53594;SDS011;39479;45.720;11.310;2023-11-22T08:53:44;13.70;;;10.40;;
53594;SDS011;39479;45.720;11.310;2023-11-22T08:56:10;10.55;;;7.20;;
53594;SDS011;39479;45.720;11.310;2023-11-22T08:58:39;8.50;;;5.57;;
53594;SDS011;39479;45.720;11.310;2023-11-22T09:01:06;14.35;;;8.48;;
53594;SDS011;39479;45.720;11.310;2023-11-22T09:03:33;20.05;;;13.18;;
53594;SDS011;39479;45.720;11.310;2023-11-22T09:05:59;23.27;;;16.27;;
53594;SDS011;39479;45.720;11.310;2023-11-22T09:08:25;16.20;;;10.57;;
53594;SDS011;39479;45.720;11.310;2023-11-22T09:10:51;16.25;;;10.40;;
53594;SDS011;39479;45.720;11.310;2023-11-22T09:13:17;20.27;;;12.15;;
53594;SDS011;39479;45.720;11.310;2023-11-22T09:15:44;9.60;;;6.40;;
53594;SDS011;39479;45.720;11.310;2023-11-22T09:18:10;10.98;;;6.22;;
53594;SDS011;39479;45.720;11.310;2023-11-22T09:20:39;7.05;;;5.10;;
53594;SDS011;39479;45.720;11.310;2023-11-22T09:23:09;6.90;;;4.88;;
53594;SDS011;39479;45.720;11.310;2023-11-22T09:25:35;7.22;;;4.32;;
53594;SDS011;39479;45.720;11.310;2023-11-22T09:28:01;6.45;;;3.65;;
53594;SDS011;39479;45.720;11.310;2023-11-22T09:30:29;6.80;;;5.05;;
53594;SDS011;39479;45.720;11.310;2023-11-22T09:35:34;8.38;;;3.97;;
53594;SDS011;39479;45.720;11.310;2023-11-22T09:38:00;5.25;;;3.80;;
53594;SDS011;39479;45.720;11.310;2023-11-22T09:40:27;6.60;;;3.95;;
53594;SDS011;39479;45.720;11.310;2023-11-22T09:43:01;6.47;;;4.30;;
53594;SDS011;39479;45.720;11.310;2023-11-22T09:45:28;6.80;;;4.03;;
53594;SDS011;39479;45.720;11.310;2023-11-22T09:47:57;8.57;;;6.60;;
53594;SDS011;39479;45.720;11.310;2023-11-22T09:50:29;10.02;;;7.72;;
53594;SDS011;39479;45.720;11.310;2023-11-22T09:53:01;3.33;;;2.75;;
53594;SDS011;39479;45.720;11.310;2023-11-22T09:55:28;4.35;;;3.42;;
53594;SDS011;39479;45.720;11.310;2023-11-22T09:57:59;5.82;;;3.40;;
53594;SDS011;39479;45.720;11.310;2023-11-22T10:00:26;6.28;;;3.75;;
53594;SDS011;39479;45.720;11.310;2023-11-22T10:02:55;5.57;;;4.22;;
53594;SDS011;39479;45.720;11.310;2023-11-22T10:05:21;5.95;;;3.90;;
53594;SDS011;39479;45.720;11.310;2023-11-22T10:07:47;9.10;;;5.70;;
53594;SDS011;39479;45.720;11.310;2023-11-22T10:10:14;7.78;;;3.70;;
53594;SDS011;39479;45.720;11.310;2023-11-22T10:12:44;13.38;;;7.68;;
53594;SDS011;39479;45.720;11.310;2023-11-22T10:15:11;6.80;;;4.05;;
53594;SDS011;39479;45.720;11.310;2023-11-22T10:17:37;4.95;;;4.45;;
53594;SDS011;39479;45.720;11.310;2023-11-22T10:20:03;2.20;;;2.00;;
53594;SDS011;39479;45.720;11.310;2023-11-22T10:22:31;3.45;;;2.40;;
53594;SDS011;39479;45.720;11.310;2023-11-22T10:25:09;5.57;;;3.42;;
53594;SDS011;39479;45.720;11.310;2023-11-22T10:27:37;3.67;;;3.30;;
53594;SDS011;39479;45.720;11.310;2023-11-22T10:30:03;3.78;;;3.10;;
53594;SDS011;39479;45.720;11.310;2023-11-22T10:32:30;2.60;;;2.40;;
53594;SDS011;39479;45.720;11.310;2023-11-22T10:34:56;2.72;;;2.50;;
53594;SDS011;39479;45.720;11.310;2023-11-22T10:37:22;3.80;;;3.13;;
53594;SDS011;39479;45.720;11.310;2023-11-22T10:39:50;4.07;;;3.05;;
53594;SDS011;39479;45.720;11.310;2023-11-22T10:42:17;3.72;;;3.33;;
53594;SDS011;39479;45.720;11.310;2023-11-22T10:44:43;4.15;;;3.10;;
53594;SDS011;39479;45.720;11.310;2023-11-22T10:47:09;4.18;;;3.30;;
53594;SDS011;39479;45.720;11.310;2023-11-22T10:49:36;7.75;;;5.93;;
53594;SDS011;39479;45.720;11.310;2023-11-22T10:52:02;5.50;;;4.32;;
53594;SDS011;39479;45.720;11.310;2023-11-22T10:54:30;5.65;;;4.80;;
53594;SDS011;39479;45.720;11.310;2023-11-22T10:56:57;4.38;;;3.40;;
53594;SDS011;39479;45.720;11.310;2023-11-22T10:59:26;4.20;;;3.60;;
53594;SDS011;39479;45.720;11.310;2023-11-22T11:01:54;5.72;;;5.15;;
53594;SDS011;39479;45.720;11.310;2023-11-22T11:04:33;3.95;;;3.47;;
53594;SDS011;39479;45.720;11.310;2023-11-22T11:07:02;5.85;;;3.90;;
53594;SDS011;39479;45.720;11.310;2023-11-22T11:09:29;3.83;;;3.40;;
53594;SDS011;39479;45.720;11.310;2023-11-22T11:11:58;6.65;;;4.20;;
53594;SDS011;39479;45.720;11.310;2023-11-22T11:14:24;5.22;;;3.90;;
53594;SDS011;39479;45.720;11.310;2023-11-22T11:16:51;8.05;;;4.00;;
53594;SDS011;39479;45.720;11.310;2023-11-22T11:19:19;6.50;;;3.58;;
53594;SDS011;39479;45.720;11.310;2023-11-22T11:21:50;8.23;;;3.97;;
53594;SDS011;39479;45.720;11.310;2023-11-22T11:24:17;4.75;;;3.67;;
53594;SDS011;39479;45.720;11.310;2023-11-22T11:26:49;4.50;;;3.13;;
53594;SDS011;39479;45.720;11.310;2023-11-22T11:34:57;3.95;;;3.38;;
53594;SDS011;39479;45.720;11.310;2023-11-22T11:37:25;8.32;;;5.07;;
53594;SDS011;39479;45.720;11.310;2023-11-22T11:39:51;7.78;;;4.78;;
53594;SDS011;39479;45.720;11.310;2023-11-22T11:42:17;8.85;;;6.15;;
53594;SDS011;39479;45.720;11.310;2023-11-22T11:47:24;8.70;;;6.60;;
53594;SDS011;39479;45.720;11.310;2023-11-22T11:49:50;8.98;;;7.40;;
53594;SDS011;39479;45.720;11.310;2023-11-22T11:52:16;9.10;;;7.28;;
53594;SDS011;39479;45.720;11.310;2023-11-22T11:54:43;8.48;;;6.13;;
53594;SDS011;39479;45.720;11.310;2023-11-22T11:57:09;7.70;;;5.25;;
53594;SDS011;39479;45.720;11.310;2023-11-22T11:59:35;4.28;;;3.50;;
53594;SDS011;39479;45.720;11.310;2023-11-22T12:02:01;5.65;;;4.47;;
53594;SDS011;39479;45.720;11.310;2023-11-22T12:04:31;6.43;;;4.35;;
53594;SDS011;39479;45.720;11.310;2023-11-22T12:06:58;3.55;;;3.25;;
53594;SDS011;39479;45.720;11.310;2023-11-22T12:09:24;9.70;;;7.97;;
53594;SDS011;39479;45.720;11.310;2023-11-22T12:11:50;4.85;;;2.70;;
53594;SDS011;39479;45.720;11.310;2023-11-22T12:14:18;3.90;;;3.53;;
53594;SDS011;39479;45.720;11.310;2023-11-22T12:16:44;3.50;;;3.20;;
53594;SDS011;39479;45.720;11.310;2023-11-22T12:19:20;6.10;;;5.50;;
53594;SDS011;39479;45.720;11.310;2023-11-22T12:21:47;3.38;;;3.08;;
53594;SDS011;39479;45.720;11.310;2023-11-22T12:24:14;3.40;;;3.00;;
53594;SDS011;39479;45.720;11.310;2023-11-22T12:26:43;5.53;;;4.07;;
53594;SDS011;39479;45.720;11.310;2023-11-22T12:29:11;15.50;;;11.13;;
53594;SDS011;39479;45.720;11.310;2023-11-22T12:31:43;11.07;;;8.02;;
53594;SDS011;39479;45.720;11.310;2023-11-22T12:34:11;5.63;;;3.45;;
53594;SDS011;39479;45.720;11.310;2023-11-22T12:36:37;6.63;;;3.97;;
53594;SDS011;39479;45.720;11.310;2023-11-22T12:39:06;5.22;;;3.63;;
53594;SDS011;39479;45.720;11.310;2023-11-22T12:41:33;3.20;;;2.90;;
53594;SDS011;39479;45.720;11.310;2023-11-22T12:44:03;5.30;;;4.20;;
53594;SDS011;39479;45.720;11.310;2023-11-22T12:46:44;5.93;;;4.30;;
53594;SDS011;39479;45.720;11.310;2023-11-22T12:49:10;5.38;;;4.68;;
53594;SDS011;39479;45.720;11.310;2023-11-22T12:51:36;5.82;;;4.50;;
53594;SDS011;39479;45.720;11.310;2023-11-22T12:54:02;6.72;;;4.97;;
53594;SDS011;39479;45.720;11.310;2023-11-22T12:56:28;6.20;;;5.13;;
53594;SDS011;39479;45.720;11.310;2023-11-22T12:58:54;6.10;;;4.15;;
53594;SDS011;39479;45.720;11.310;2023-11-22T13:01:21;13.75;;;9.68;;
53594;SDS011;39479;45.720;11.310;2023-11-22T13:03:47;6.85;;;4.90;;
53594;SDS011;39479;45.720;11.310;2023-11-22T13:06:14;7.75;;;6.07;;
53594;SDS011;39479;45.720;11.310;2023-11-22T13:08:42;7.10;;;6.40;;
53594;SDS011;39479;45.720;11.310;2023-11-22T13:11:08;6.78;;;5.50;;
53594;SDS011;39479;45.720;11.310;2023-11-22T13:13:35;6.10;;;4.53;;
53594;SDS011;39479;45.720;11.310;2023-11-22T13:16:01;6.45;;;4.93;;
53594;SDS011;39479;45.720;11.310;2023-11-22T13:18:28;11.38;;;8.35;;
53594;SDS011;39479;45.720;11.310;2023-11-22T13:20:54;8.18;;;4.97;;
53594;SDS011;39479;45.720;11.310;2023-11-22T13:23:21;7.45;;;4.40;;
53594;SDS011;39479;45.720;11.310;2023-11-22T13:25:47;6.30;;;4.38;;
53594;SDS011;39479;45.720;11.310;2023-11-22T13:28:13;10.95;;;7.90;;
53594;SDS011;39479;45.720;11.310;2023-11-22T13:30:39;8.98;;;6.13;;
53594;SDS011;39479;45.720;11.310;2023-11-22T13:33:05;6.70;;;4.47;;
53594;SDS011;39479;45.720;11.310;2023-11-22T13:35:32;4.57;;;3.35;;
53594;SDS011;39479;45.720;11.310;2023-11-22T13:38:03;5.80;;;3.35;;
53594;SDS011;39479;45.720;11.310;2023-11-22T13:40:35;4.15;;;3.10;;
53594;SDS011;39479;45.720;11.310;2023-11-22T13:43:04;5.72;;;3.78;;
53594;SDS011;39479;45.720;11.310;2023-11-22T13:45:30;4.22;;;3.10;;
53594;SDS011;39479;45.720;11.310;2023-11-22T13:47:56;4.90;;;4.32;;
53594;SDS011;39479;45.720;11.310;2023-11-22T13:50:25;27.40;;;19.40;;
53594;SDS011;39479;45.720;11.310;2023-11-22T13:52:52;16.15;;;10.88;;
53594;SDS011;39479;45.720;11.310;2023-11-22T13:55:19;6.28;;;4.35;;
53594;SDS011;39479;45.720;11.310;2023-11-22T13:57:58;4.97;;;3.60;;
53594;SDS011;39479;45.720;11.310;2023-11-22T14:00:25;5.70;;;3.40;;
53594;SDS011;39479;45.720;11.310;2023-11-22T14:02:54;4.53;;;3.60;;
53594;SDS011;39479;45.720;11.310;2023-11-22T14:05:29;4.57;;;3.70;;
53594;SDS011;39479;45.720;11.310;2023-11-22T14:07:56;3.72;;;3.22;;
53594;SDS011;39479;45.720;11.310;2023-11-22T14:10:22;3.97;;;3.15;;
53594;SDS011;39479;45.720;11.310;2023-11-22T14:12:49;5.20;;;3.65;;
53594;SDS011;39479;45.720;11.310;2023-11-22T14:15:16;4.90;;;2.80;;
53594;SDS011;39479;45.720;11.310;2023-11-22T14:17:42;3.72;;;2.80;;
53594;SDS011;39479;45.720;11.310;2023-11-22T14:20:11;3.95;;;3.00;;
53594;SDS011;39479;45.720;11.310;2023-11-22T14:22:38;4.07;;;2.70;;
53594;SDS011;39479;45.720;11.310;2023-11-22T14:25:04;4.75;;;2.88;;
53594;SDS011;39479;45.720;11.310;2023-11-22T14:27:42;4.03;;;2.90;;
53594;SDS011;39479;45.720;11.310;2023-11-22T14:30:09;3.25;;;2.55;;
53594;SDS011;39479;45.720;11.310;2023-11-22T14:32:40;3.33;;;2.67;;
53594;SDS011;39479;45.720;11.310;2023-11-22T14:35:09;7.40;;;5.28;;
53594;SDS011;39479;45.720;11.310;2023-11-22T14:37:36;6.05;;;2.72;;
53594;SDS011;39479;45.720;11.310;2023-11-22T14:40:09;5.22;;;3.83;;
53594;SDS011;39479;45.720;11.310;2023-11-22T14:42:42;6.50;;;4.60;;
53594;SDS011;39479;45.720;11.310;2023-11-22T14:45:10;4.03;;;2.88;;